Time;durP1;ratioP1;P1;durP2;ratioP2;P2;SDS_P1;SDS_P2;PMS_P1;PMS_P2;Temp;Humidity;BMP_temperature;BMP_pressure;BME280_temperature;BME280_humidity;BME280_pressure;Samples;Min_cycle;Max_cycle;Signal;HPM_P1;HPM_P2
2022/10/15 00:00:06;;;;;;;10.52;7.43;;;16.40;99.90;;;;;;5071354;28;20394;-77
2022/10/15 00:02:32;;;;;;;11.07;7.75;;;16.40;99.90;;;;;;5070998;28;20099;-76
2022/10/15 00:04:58;;;;;;;11.40;8.77;;;16.40;99.90;;;;;;5070296;28;20044;-76
2022/10/15 00:07:24;;;;;;;12.63;8.23;;;16.30;99.90;;;;;;5071634;28;20040;-75
2022/10/15 00:09:50;;;;;;;14.63;9.27;;;16.30;99.90;;;;;;5071731;28;20434;-76
2022/10/15 00:12:15;;;;;;;14.02;10.20;;;16.30;99.90;;;;;;5070051;28;20040;-76
2022/10/15 00:14:41;;;;;;;17.20;9.48;;;16.30;99.90;;;;;;5071442;28;20036;-76
2022/10/15 00:17:07;;;;;;;16.27;11.35;;;16.30;99.90;;;;;;5071779;28;20071;-76
2022/10/15 00:19:33;;;;;;;15.93;10.50;;;16.30;99.90;;;;;;5071263;28;20052;-77
2022/10/15 00:21:59;;;;;;;17.90;11.80;;;16.40;99.90;;;;;;5070896;28;20490;-77
2022/10/15 00:24:24;;;;;;;18.38;11.57;;;16.40;99.90;;;;;;5071053;28;20282;-75
2022/10/15 00:26:50;;;;;;;18.88;13.25;;;16.40;99.90;;;;;;5071043;28;20367;-76
2022/10/15 00:29:16;;;;;;;16.48;11.23;;;16.40;99.90;;;;;;5071327;28;20028;-77
2022/10/15 00:31:41;;;;;;;20.58;12.68;;;16.40;99.90;;;;;;5071031;28;20044;-75
2022/10/15 00:34:08;;;;;;;19.52;11.82;;;16.40;99.90;;;;;;5071153;28;20036;-75
2022/10/15 00:36:35;;;;;;;21.98;11.70;;;16.40;99.90;;;;;;5070762;28;20036;-76
2022/10/15 00:39:03;;;;;;;19.43;12.90;;;16.40;99.90;;;;;;5070689;28;20033;-76
2022/10/15 00:41:32;;;;;;;19.40;12.80;;;16.30;99.90;;;;;;5071101;28;20016;-76
2022/10/15 00:44:00;;;;;;;16.58;12.23;;;16.30;99.90;;;;;;5070127;28;20028;-75
2022/10/15 00:46:34;;;;;;;44.28;28.23;;;16.30;99.90;;;;;;5069909;28;20435;-76
2022/10/15 00:49:17;;;;;;;111.43;67.75;;;16.30;99.90;;;;;;5069655;28;20039;-76
2022/10/15 00:52:19;;;;;;;41.55;26.50;;;16.20;99.90;;;;;;5070848;28;20033;-74
2022/10/15 00:54:51;;;;;;;20.58;14.77;;;16.20;99.90;;;;;;5068409;28;20112;-74
2022/10/15 00:57:18;;;;;;;24.55;14.40;;;16.20;99.90;;;;;;5069465;28;20043;-76
2022/10/15 00:59:49;;;;;;;19.80;13.93;;;16.20;99.90;;;;;;5069724;28;20036;-76
2022/10/15 01:02:17;;;;;;;21.13;14.18;;;16.10;99.90;;;;;;5071056;28;20032;-76
2022/10/15 01:04:44;;;;;;;19.80;14.25;;;16.10;99.90;;;;;;5070811;28;20036;-77
2022/10/15 01:07:10;;;;;;;21.45;14.52;;;16.00;99.90;;;;;;5069456;28;20044;-76
2022/10/15 01:09:35;;;;;;;22.63;15.50;;;16.00;99.90;;;;;;5070526;28;20040;-76
2022/10/15 01:12:04;;;;;;;23.75;14.55;;;16.00;99.90;;;;;;5069183;28;20063;-76
2022/10/15 01:14:50;;;;;;;22.52;14.75;;;16.00;99.90;;;;;;5070080;28;20024;-76
2022/10/15 01:17:39;;;;;;;20.80;15.15;;;15.90;99.90;;;;;;5069650;28;20024;-77
2022/10/15 01:20:29;;;;;;;22.75;14.30;;;15.90;99.90;;;;;;5070358;28;20482;-76
2022/10/15 01:23:01;;;;;;;22.77;15.05;;;15.80;99.90;;;;;;5070452;28;20371;-77
2022/10/15 01:25:54;;;;;;;24.20;15.68;;;15.80;99.90;;;;;;5070361;28;20029;-76
2022/10/15 01:28:57;;;;;;;21.48;14.95;;;15.80;99.90;;;;;;5070319;28;20048;-75
2022/10/15 01:31:44;;;;;;;22.67;15.18;;;15.70;99.90;;;;;;5070305;28;20048;-77
2022/10/15 01:34:15;;;;;;;21.83;15.63;;;15.70;99.90;;;;;;5069081;28;20024;-75
2022/10/15 01:37:04;;;;;;;24.30;14.55;;;15.60;99.90;;;;;;5068967;28;20358;-77
2022/10/15 01:39:34;;;;;;;27.25;15.43;;;15.60;99.90;;;;;;5070271;28;20076;-75
2022/10/15 01:42:04;;;;;;;22.90;15.15;;;15.60;99.90;;;;;;5069185;28;20639;-76
2022/10/15 01:44:39;;;;;;;24.15;15.63;;;15.50;99.90;;;;;;5069386;28;20346;-75
2022/10/15 01:47:20;;;;;;;21.98;14.68;;;15.50;99.90;;;;;;5071167;28;20203;-76
2022/10/15 01:49:48;;;;;;;23.95;14.50;;;15.40;99.90;;;;;;5069858;28;20063;-76
2022/10/15 01:52:20;;;;;;;27.25;14.85;;;15.30;99.90;;;;;;5070451;28;20044;-76
2022/10/15 01:54:48;;;;;;;23.75;14.98;;;15.30;99.90;;;;;;5070378;28;20032;-76
2022/10/15 01:57:15;;;;;;;25.27;16.02;;;15.20;99.90;;;;;;5070602;28;20368;-76
2022/10/15 01:59:42;;;;;;;23.42;14.73;;;15.20;99.90;;;;;;5070415;28;20116;-76
2022/10/15 02:02:08;;;;;;;22.40;15.23;;;15.20;99.90;;;;;;5070698;28;20363;-75
2022/10/15 02:04:34;;;;;;;24.50;15.73;;;15.10;99.90;;;;;;5069147;28;20032;-75
2022/10/15 02:06:59;;;;;;;30.02;15.30;;;15.10;99.90;;;;;;5068909;28;20391;-75
2022/10/15 02:09:53;;;;;;;24.77;14.82;;;15.00;99.90;;;;;;5069931;28;20253;-76
2022/10/15 02:12:37;;;;;;;27.30;15.73;;;15.00;99.90;;;;;;5069846;28;20105;-75
2022/10/15 02:15:25;;;;;;;25.77;15.30;;;14.90;99.90;;;;;;5068965;28;20361;-75
2022/10/15 02:18:08;;;;;;;27.65;15.05;;;14.90;99.90;;;;;;5059046;28;20099;-75
2022/10/15 02:20:52;;;;;;;23.67;15.48;;;14.80;99.90;;;;;;5069828;28;20017;-76
2022/10/15 02:23:27;;;;;;;24.02;15.75;;;14.70;99.90;;;;;;5070653;28;20012;-77
2022/10/15 02:25:54;;;;;;;24.13;15.98;;;14.70;99.90;;;;;;5070182;28;20474;-76
2022/10/15 02:28:24;;;;;;;29.30;15.38;;;14.70;99.90;;;;;;5072479;28;20090;-76
2022/10/15 02:30:52;;;;;;;25.23;16.13;;;14.60;99.90;;;;;;5072334;28;20043;-75
2022/10/15 02:33:19;;;;;;;26.02;15.68;;;14.60;99.90;;;;;;5073313;28;20033;-75
2022/10/15 02:35:47;;;;;;;24.92;15.00;;;14.60;99.90;;;;;;5073434;28;20043;-75
2022/10/15 02:38:15;;;;;;;23.63;15.07;;;14.50;99.90;;;;;;5073673;28;20056;-75
2022/10/15 02:40:43;;;;;;;27.63;15.63;;;14.40;99.90;;;;;;5074920;28;20287;-76
2022/10/15 02:43:10;;;;;;;;;;;14.40;99.90;;;;;;5074489;28;20032;-76
2022/10/15 02:45:37;;;;;;;23.60;15.48;;;14.40;99.90;;;;;;5073441;28;19919;-76
2022/10/15 02:48:03;;;;;;;25.08;15.30;;;14.40;99.90;;;;;;5072024;28;20044;-76
2022/10/15 02:50:28;;;;;;;25.33;15.07;;;14.40;99.90;;;;;;5073132;28;20399;-76
2022/10/15 02:52:54;;;;;;;26.58;14.55;;;14.30;99.90;;;;;;5073474;28;20020;-78
2022/10/15 02:55:20;;;;;;;27.17;15.07;;;14.30;99.90;;;;;;5073058;28;20056;-77
2022/10/15 02:57:46;;;;;;;22.75;14.27;;;14.20;99.90;;;;;;5071993;28;20364;-78
2022/10/15 03:00:12;;;;;;;21.63;14.10;;;14.10;99.90;;;;;;5071993;28;20033;-76
2022/10/15 03:02:38;;;;;;;22.23;14.82;;;14.20;99.90;;;;;;5072038;28;20029;-76
2022/10/15 03:05:04;;;;;;;30.98;16.02;;;14.10;99.90;;;;;;5073209;28;20020;-76
2022/10/15 03:07:29;;;;;;;25.75;15.13;;;14.10;99.90;;;;;;5072834;28;20029;-77
2022/10/15 03:09:55;;;;;;;26.98;15.40;;;14.00;99.90;;;;;;5071631;28;20107;-77
2022/10/15 03:12:22;;;;;;;24.38;14.90;;;14.00;99.90;;;;;;5072466;28;20050;-77
2022/10/15 03:14:48;;;;;;;29.70;14.57;;;14.00;99.90;;;;;;5073032;28;20040;-76
2022/10/15 03:17:14;;;;;;;24.50;14.90;;;14.00;99.90;;;;;;5073009;28;20048;-78
2022/10/15 03:19:40;;;;;;;21.77;14.57;;;14.00;99.90;;;;;;5072735;28;20292;-76
2022/10/15 03:22:06;;;;;;;27.77;15.25;;;13.90;99.90;;;;;;5072426;28;20047;-77
2022/10/15 03:24:31;;;;;;;33.13;14.23;;;13.90;99.90;;;;;;5072653;28;20347;-77
2022/10/15 03:26:57;;;;;;;28.42;14.75;;;13.80;99.90;;;;;;5072337;28;20045;-76
2022/10/15 03:29:22;;;;;;;29.13;15.15;;;13.80;99.90;;;;;;5072954;28;20442;-78
2022/10/15 03:31:48;;;;;;;27.08;14.50;;;13.80;99.90;;;;;;5072776;28;20032;-77
2022/10/15 03:34:14;;;;;;;28.63;16.35;;;13.80;99.90;;;;;;5072755;28;20532;-78
2022/10/15 03:36:40;;;;;;;24.60;15.00;;;13.80;99.90;;;;;;5071564;28;20489;-76
2022/10/15 03:39:07;;;;;;;26.25;15.45;;;13.70;99.90;;;;;;5072397;28;20093;-78
2022/10/15 03:41:33;;;;;;;25.93;14.63;;;13.80;99.90;;;;;;5073468;28;20028;-76
2022/10/15 03:44:04;;;;;;;26.23;14.55;;;13.70;99.90;;;;;;5075894;28;20387;-76
2022/10/15 03:46:30;;;;;;;24.92;15.70;;;13.70;99.90;;;;;;5076351;28;20024;-77
2022/10/15 03:48:56;;;;;;;29.40;16.60;;;13.60;99.90;;;;;;5076026;28;20035;-76
2022/10/15 03:51:21;;;;;;;25.10;15.30;;;13.70;99.90;;;;;;5072674;28;20036;-76
2022/10/15 03:53:47;;;;;;;25.08;15.70;;;13.70;99.90;;;;;;5073286;28;20040;-76
2022/10/15 03:56:13;;;;;;;38.35;16.65;;;13.60;99.90;;;;;;5073627;28;20088;-76
2022/10/15 03:58:39;;;;;;;26.88;16.30;;;13.50;99.90;;;;;;5072609;28;20033;-78
2022/10/15 04:01:13;;;;;;;25.52;16.80;;;13.60;99.90;;;;;;5072250;28;20120;-77
2022/10/15 04:03:38;;;;;;;27.08;16.00;;;13.60;99.90;;;;;;5073488;28;20477;-77
2022/10/15 04:06:05;;;;;;;27.65;15.90;;;13.60;99.90;;;;;;5074054;28;20024;-77
2022/10/15 04:08:30;;;;;;;32.97;15.43;;;13.60;99.90;;;;;;5072871;28;20119;-77
2022/10/15 04:10:58;;;;;;;29.63;16.02;;;13.60;99.90;;;;;;5072788;28;20189;-77
2022/10/15 04:13:24;;;;;;;29.13;17.70;;;13.60;99.90;;;;;;5073498;28;20085;-77
2022/10/15 04:15:49;;;;;;;28.00;15.55;;;13.60;99.90;;;;;;5079383;28;20371;-76
2022/10/15 04:18:15;;;;;;;30.20;17.40;;;13.60;99.90;;;;;;5075981;28;20032;-76
2022/10/15 04:20:41;;;;;;;30.77;16.27;;;13.50;99.90;;;;;;5078689;28;20357;-77
2022/10/15 04:23:08;;;;;;;26.90;17.42;;;13.60;99.90;;;;;;5079409;28;20308;-78
2022/10/15 04:25:35;;;;;;;29.80;17.75;;;13.60;99.90;;;;;;5079122;28;20055;-77
2022/10/15 04:28:01;;;;;;;26.83;16.77;;;13.60;99.90;;;;;;5075207;28;20025;-76
2022/10/15 04:30:27;;;;;;;30.13;18.13;;;13.50;99.90;;;;;;5075946;28;20043;-76
2022/10/15 04:32:53;;;;;;;28.83;17.25;;;13.50;99.90;;;;;;5081660;28;20024;-77
2022/10/15 04:35:18;;;;;;;32.38;18.92;;;13.50;99.90;;;;;;5079635;28;20047;-77
2022/10/15 04:37:44;;;;;;;32.55;18.75;;;13.50;99.90;;;;;;5075853;28;20033;-78
2022/10/15 04:40:11;;;;;;;30.55;18.55;;;13.50;99.90;;;;;;5073124;28;20028;-78
2022/10/15 04:42:37;;;;;;;35.15;18.38;;;13.50;99.90;;;;;;5072808;28;20179;-77
2022/10/15 04:45:04;;;;;;;30.27;17.75;;;13.40;99.90;;;;;;5072742;28;20371;-78
2022/10/15 04:47:29;;;;;;;36.90;18.02;;;13.40;99.90;;;;;;5071356;28;20028;-78
2022/10/15 04:49:55;;;;;;;32.05;18.00;;;13.40;99.90;;;;;;5071434;28;20031;-78
2022/10/15 04:52:20;;;;;;;30.10;17.67;;;13.40;99.90;;;;;;5071659;28;20092;-77
2022/10/15 04:54:46;;;;;;;31.73;19.35;;;13.40;99.90;;;;;;5071571;28;20128;-77
2022/10/15 04:57:12;;;;;;;35.30;19.40;;;13.30;99.90;;;;;;5071202;28;20112;-78
2022/10/15 04:59:38;;;;;;;28.85;17.85;;;13.30;99.90;;;;;;5071473;28;20422;-78
2022/10/15 05:02:03;;;;;;;31.05;17.80;;;13.30;99.90;;;;;;5071970;28;20016;-76
2022/10/15 05:04:29;;;;;;;31.05;18.08;;;13.40;99.90;;;;;;5070998;28;20090;-77
2022/10/15 05:06:55;;;;;;;42.30;19.30;;;13.30;99.90;;;;;;5070760;28;20035;-77
2022/10/15 05:09:20;;;;;;;29.30;18.13;;;13.40;99.90;;;;;;5071002;28;20044;-76
2022/10/15 05:11:46;;;;;;;31.88;18.77;;;13.30;99.90;;;;;;5070596;28;20420;-77
2022/10/15 05:14:12;;;;;;;35.88;19.08;;;13.40;99.90;;;;;;5071219;28;20074;-77
2022/10/15 05:16:38;;;;;;;37.70;20.88;;;13.40;99.90;;;;;;5070555;28;20032;-76
2022/10/15 05:19:05;;;;;;;32.67;19.00;;;13.30;99.90;;;;;;5070230;28;20056;-77
2022/10/15 05:21:32;;;;;;;31.08;17.67;;;13.40;99.90;;;;;;5070549;28;20071;-78
2022/10/15 05:23:58;;;;;;;33.75;18.40;;;13.30;99.90;;;;;;5070380;28;20033;-77
2022/10/15 05:26:25;;;;;;;34.10;18.38;;;13.30;99.90;;;;;;5070237;28;20032;-75
2022/10/15 05:28:52;;;;;;;37.78;19.60;;;13.30;99.90;;;;;;5069604;28;20031;-78
2022/10/15 05:31:21;;;;;;;32.78;20.00;;;13.30;99.90;;;;;;5070376;28;20339;-77
2022/10/15 05:33:50;;;;;;;37.20;18.85;;;13.40;99.90;;;;;;5063205;28;20060;-77
2022/10/15 05:36:16;;;;;;;36.13;18.42;;;13.40;99.90;;;;;;5049303;28;20029;-77
2022/10/15 05:38:46;;;;;;;37.85;20.23;;;13.30;99.90;;;;;;5048420;28;20052;-78
2022/10/15 05:41:12;;;;;;;37.47;19.05;;;13.30;99.90;;;;;;5051334;28;20025;-76
2022/10/15 05:43:38;;;;;;;34.88;19.60;;;13.30;99.90;;;;;;5049574;28;20128;-76
2022/10/15 05:46:04;;;;;;;40.70;20.90;;;13.30;99.90;;;;;;5050470;28;20527;-77
2022/10/15 05:48:29;;;;;;;35.53;20.48;;;13.40;99.90;;;;;;5050927;28;20344;-80
2022/10/15 05:51:06;;;;;;;41.25;20.30;;;13.40;99.90;;;;;;5050890;28;20462;-78
2022/10/15 05:53:32;;;;;;;81.97;44.97;;;13.30;99.90;;;;;;5050098;28;20032;-76
2022/10/15 05:55:58;;;;;;;179.02;100.05;;;13.40;99.90;;;;;;5051077;28;20036;-76
2022/10/15 05:58:28;;;;;;;46.72;25.70;;;13.40;99.90;;;;;;5050488;28;20048;-81
2022/10/15 06:00:56;;;;;;;35.70;20.73;;;13.30;99.90;;;;;;5049654;28;20025;-75
2022/10/15 06:03:22;;;;;;;37.37;21.00;;;13.30;99.90;;;;;;5054327;28;20029;-76
2022/10/15 06:05:48;;;;;;;40.35;22.35;;;13.40;99.90;;;;;;5054203;28;20175;-77
2022/10/15 06:08:14;;;;;;;37.75;21.55;;;13.30;99.90;;;;;;5053516;28;20119;-77
2022/10/15 06:10:40;;;;;;;38.30;21.13;;;13.40;99.90;;;;;;5053090;28;20040;-80
2022/10/15 06:13:05;;;;;;;39.30;20.05;;;13.40;99.90;;;;;;5053799;28;20355;-75
2022/10/15 06:15:32;;;;;;;39.15;21.08;;;13.40;99.90;;;;;;5053774;28;20139;-76
2022/10/15 06:17:58;;;;;;;51.50;20.52;;;13.40;99.90;;;;;;5052495;28;20493;-74
2022/10/15 06:20:24;;;;;;;31.42;19.35;;;13.50;99.90;;;;;;5052669;28;20029;-74
2022/10/15 06:22:49;;;;;;;33.60;18.70;;;13.50;99.90;;;;;;5054230;28;20138;-76
2022/10/15 06:25:16;;;;;;;34.13;18.70;;;13.50;99.90;;;;;;5065241;28;20101;-75
2022/10/15 06:27:41;;;;;;;29.45;17.67;;;13.50;99.90;;;;;;5072863;28;20033;-74
2022/10/15 06:30:07;;;;;;;32.03;17.35;;;13.50;99.90;;;;;;5073533;28;20090;-77
2022/10/15 06:32:33;;;;;;;33.85;17.33;;;13.60;99.90;;;;;;5073652;28;20494;-76
2022/10/15 06:34:59;;;;;;;31.90;17.85;;;13.60;99.90;;;;;;5073864;28;20040;-76
2022/10/15 06:37:25;;;;;;;36.95;19.92;;;13.70;99.90;;;;;;5073467;28;20060;-75
2022/10/15 06:39:51;;;;;;;39.50;20.20;;;13.70;99.90;;;;;;5072785;28;20119;-76
2022/10/15 06:42:16;;;;;;;32.30;18.90;;;13.70;99.90;;;;;;5073459;28;20029;-76
2022/10/15 06:44:42;;;;;;;32.90;18.35;;;13.70;99.90;;;;;;5072874;28;20486;-76
2022/10/15 06:47:08;;;;;;;30.17;17.63;;;13.80;99.90;;;;;;5073379;28;20029;-77
2022/10/15 06:49:34;;;;;;;37.17;17.67;;;13.80;99.90;;;;;;5071353;28;20037;-75
2022/10/15 06:51:59;;;;;;;33.78;17.52;;;13.80;99.90;;;;;;5071928;28;20285;-80
2022/10/15 06:54:25;;;;;;;35.42;16.23;;;13.90;99.90;;;;;;5063754;28;20059;-77
2022/10/15 06:56:51;;;;;;;37.58;16.08;;;13.90;99.90;;;;;;5071711;28;20027;-75
2022/10/15 06:59:16;;;;;;;31.52;15.95;;;13.90;99.90;;;;;;5073278;28;20100;-74
2022/10/15 07:01:42;;;;;;;33.40;16.92;;;14.00;99.90;;;;;;5072860;28;20415;-75
2022/10/15 07:04:08;;;;;;;25.50;15.13;;;14.00;99.90;;;;;;5072596;28;20028;-75
2022/10/15 07:06:34;;;;;;;29.05;15.73;;;14.00;99.90;;;;;;5072955;28;20040;-76
2022/10/15 07:09:04;;;;;;;31.83;16.48;;;14.10;99.90;;;;;;5071668;28;20074;-77
2022/10/15 07:11:30;;;;;;;28.17;15.68;;;14.10;99.90;;;;;;5071292;28;20466;-74
2022/10/15 07:13:57;;;;;;;28.98;16.73;;;14.10;99.90;;;;;;5072405;28;20074;-76
2022/10/15 07:16:23;;;;;;;31.85;16.70;;;14.20;99.90;;;;;;5072630;28;20100;-74
2022/10/15 07:18:49;;;;;;;28.45;15.32;;;14.30;99.90;;;;;;5072112;28;20436;-77
2022/10/15 07:21:14;;;;;;;30.90;14.68;;;14.30;99.90;;;;;;5071239;28;20032;-77
2022/10/15 07:23:40;;;;;;;33.10;15.13;;;14.40;99.90;;;;;;5072192;28;20043;-75
2022/10/15 07:26:06;;;;;;;29.55;15.18;;;14.40;99.90;;;;;;5072985;28;20088;-72
2022/10/15 07:28:31;;;;;;;32.58;14.73;;;14.50;99.90;;;;;;5072550;28;20121;-74
2022/10/15 07:31:02;;;;;;;35.70;15.68;;;14.50;99.90;;;;;;5073006;28;20024;-76
2022/10/15 07:33:27;;;;;;;39.45;16.30;;;14.50;99.90;;;;;;5072389;28;20048;-75
2022/10/15 07:35:53;;;;;;;34.42;18.02;;;14.50;99.90;;;;;;5070624;28;20442;-78
2022/10/15 07:38:19;;;;;;;38.50;17.80;;;14.60;99.90;;;;;;5074281;28;20504;-77
2022/10/15 07:40:44;;;;;;;32.90;18.58;;;14.60;99.90;;;;;;5074299;28;20115;-77
2022/10/15 07:43:10;;;;;;;39.67;17.27;;;14.70;99.90;;;;;;5074050;28;20115;-75
2022/10/15 07:45:36;;;;;;;31.80;17.63;;;14.70;99.90;;;;;;5075247;28;20024;-78
2022/10/15 07:48:02;;;;;;;33.13;16.95;;;14.80;99.90;;;;;;5076476;28;20097;-78
2022/10/15 07:50:28;;;;;;;66.35;37.85;;;14.80;99.90;;;;;;5073687;28;20409;-78
2022/10/15 07:52:53;;;;;;;55.72;29.08;;;14.90;99.90;;;;;;5073468;28;20035;-77
2022/10/15 07:55:19;;;;;;;36.45;21.65;;;15.00;99.90;;;;;;5072479;28;20370;-76
2022/10/15 07:57:45;;;;;;;37.13;18.77;;;15.00;99.90;;;;;;5071827;28;20459;-74
2022/10/15 08:00:11;;;;;;;42.90;20.67;;;15.00;99.90;;;;;;5071821;28;20028;-76
2022/10/15 08:02:36;;;;;;;37.22;19.63;;;15.10;99.90;;;;;;5072353;28;20055;-77
2022/10/15 08:05:02;;;;;;;33.40;19.30;;;15.20;99.90;;;;;;5074343;28;20188;-76
2022/10/15 08:07:28;;;;;;;34.67;20.40;;;15.30;99.90;;;;;;5072020;28;20112;-75
2022/10/15 08:09:54;;;;;;;32.42;18.85;;;15.30;99.90;;;;;;5070978;28;20116;-77
2022/10/15 08:12:19;;;;;;;38.05;18.80;;;15.30;99.90;;;;;;5071811;28;20106;-78
2022/10/15 08:14:45;;;;;;;37.92;19.60;;;15.50;99.90;;;;;;5071720;28;20029;-76
2022/10/15 08:17:11;;;;;;;37.55;20.88;;;15.50;99.90;;;;;;5071167;28;20063;-76
2022/10/15 08:19:37;;;;;;;39.47;22.20;;;15.70;99.90;;;;;;5070448;28;20054;-76
2022/10/15 08:22:03;;;;;;;40.78;22.17;;;15.80;99.90;;;;;;5070745;28;20053;-75
2022/10/15 08:24:29;;;;;;;42.42;22.15;;;16.00;99.90;;;;;;5069907;28;20075;-75
2022/10/15 08:26:57;;;;;;;41.10;23.55;;;16.00;99.90;;;;;;5071570;28;20033;-76
2022/10/15 08:29:24;;;;;;;41.75;22.67;;;16.10;99.90;;;;;;5072141;28;20031;-76
2022/10/15 08:31:50;;;;;;;46.53;23.07;;;16.20;99.90;;;;;;5071426;28;20029;-76
2022/10/15 08:34:16;;;;;;;42.65;22.95;;;16.30;99.90;;;;;;5073478;28;20051;-75
2022/10/15 08:36:42;;;;;;;40.53;23.52;;;16.30;99.90;;;;;;5071523;28;20055;-75
2022/10/15 08:39:08;;;;;;;45.08;22.98;;;16.30;99.90;;;;;;5071712;28;20047;-75
2022/10/15 08:41:47;;;;;;;46.75;24.13;;;16.40;99.90;;;;;;5063558;28;20028;-75
2022/10/15 08:44:33;;;;;;;42.25;24.40;;;16.40;99.90;;;;;;5051613;28;20036;-73
2022/10/15 08:47:06;;;;;;;44.83;25.83;;;16.40;99.90;;;;;;5051225;28;20045;-74
2022/10/15 08:49:37;;;;;;;43.58;24.58;;;16.60;99.90;;;;;;5050619;28;20459;-76
2022/10/15 08:52:13;;;;;;;59.28;30.50;;;16.90;99.90;;;;;;5051301;28;20363;-75
2022/10/15 08:54:39;;;;;;;51.05;25.42;;;17.40;99.90;;;;;;5051191;28;20105;-75
2022/10/15 08:57:22;;;;;;;45.33;25.13;;;17.90;99.90;;;;;;5051154;28;20033;-75
2022/10/15 08:59:59;;;;;;;45.13;25.55;;;18.30;99.90;;;;;;5051087;28;20108;-75
2022/10/15 09:02:32;;;;;;;41.83;23.13;;;18.80;99.90;;;;;;5052338;28;20017;-74
2022/10/15 09:05:02;;;;;;;38.90;21.85;;;19.20;99.90;;;;;;5066838;28;20060;-76
2022/10/15 09:07:42;;;;;;;33.92;20.90;;;19.70;99.90;;;;;;5050893;28;20123;-74
2022/10/15 09:10:48;;;;;;;34.35;21.10;;;19.90;99.90;;;;;;5052975;28;20036;-73
2022/10/15 09:13:25;;;;;;;34.60;20.67;;;20.10;99.90;;;;;;5043030;28;20048;-73
2022/10/15 09:15:56;;;;;;;31.55;19.70;;;20.20;99.90;;;;;;5051597;28;20266;-77
2022/10/15 09:18:26;;;;;;;31.55;19.83;;;20.30;99.90;;;;;;5051249;28;20118;-77
2022/10/15 09:20:53;;;;;;;33.53;18.98;;;20.40;99.90;;;;;;5052186;28;20029;-78
2022/10/15 09:23:22;;;;;;;31.20;19.48;;;20.30;99.60;;;;;;5052556;28;20043;-80
2022/10/15 09:25:56;;;;;;;28.95;19.20;;;20.30;99.20;;;;;;5067785;28;20053;-76
2022/10/15 09:28:28;;;;;;;32.08;18.73;;;20.50;99.30;;;;;;5054799;28;20029;-72
2022/10/15 09:30:57;;;;;;;27.45;17.92;;;20.90;99.10;;;;;;5052425;28;20089;-73
2022/10/15 09:33:43;;;;;;;28.08;17.83;;;21.30;99.00;;;;;;5051994;28;20109;-75
2022/10/15 09:36:16;;;;;;;25.73;17.00;;;21.50;98.20;;;;;;5061591;28;20078;-72
2022/10/15 09:39:03;;;;;;;27.75;16.92;;;21.50;97.90;;;;;;5074149;28;20055;-73
2022/10/15 09:41:44;;;;;;;27.67;17.08;;;21.80;97.80;;;;;;5073051;28;20097;-72
2022/10/15 09:44:12;;;;;;;23.02;16.00;;;22.30;98.10;;;;;;5075312;28;20055;-72
2022/10/15 09:46:46;;;;;;;22.95;15.90;;;23.40;96.80;;;;;;5075180;28;20527;-73
2022/10/15 09:49:19;;;;;;;25.25;15.25;;;23.40;96.30;;;;;;5077018;28;20042;-74
2022/10/15 09:52:00;;;;;;;23.80;15.48;;;23.20;95.20;;;;;;5073894;28;20415;-72
2022/10/15 09:54:38;;;;;;;25.83;15.75;;;22.80;95.00;;;;;;5074108;28;20044;-70
2022/10/15 09:57:09;;;;;;;21.55;14.63;;;22.70;95.80;;;;;;5074858;28;20077;-70
2022/10/15 09:59:34;;;;;;;20.95;15.07;;;22.80;95.70;;;;;;5074426;28;20446;-72
2022/10/15 10:02:02;;;;;;;22.77;14.95;;;22.60;95.70;;;;;;5074751;28;20060;-69
2022/10/15 10:04:33;;;;;;;21.20;15.85;;;22.70;96.00;;;;;;5073802;28;20029;-71
2022/10/15 10:07:07;;;;;;;20.60;14.40;;;23.50;95.40;;;;;;5073816;28;20028;-72
2022/10/15 10:09:35;;;;;;;21.10;14.45;;;23.60;94.60;;;;;;5074221;28;20251;-71
2022/10/15 10:12:05;;;;;;;19.58;12.85;;;23.20;94.00;;;;;;5073804;28;20036;-70
2022/10/15 10:15:00;;;;;;;16.83;11.75;;;23.60;94.50;;;;;;5073815;28;20070;-71
2022/10/15 10:17:28;;;;;;;18.85;12.13;;;24.60;94.10;;;;;;5064481;28;20111;-70
2022/10/15 10:20:24;;;;;;;19.83;12.35;;;25.60;92.30;;;;;;5073958;28;20024;-75
2022/10/15 10:22:52;;;;;;;16.45;12.18;;;26.00;91.80;;;;;;5065650;28;20028;-73
2022/10/15 10:25:43;;;;;;;16.73;11.57;;;25.60;90.70;;;;;;5072500;28;20029;-74
2022/10/15 10:28:10;;;;;;;13.63;10.27;;;25.60;91.40;;;;;;5068427;28;20055;-74
2022/10/15 10:30:42;;;;;;;14.02;10.45;;;25.30;91.10;;;;;;5073931;28;20031;-74
2022/10/15 10:33:14;;;;;;;12.50;7.85;;;25.80;91.60;;;;;;5074222;28;20415;-72
2022/10/15 10:35:49;;;;;;;11.75;8.25;;;26.70;90.30;;;;;;5073594;28;20454;-74
2022/10/15 10:38:30;;;;;;;10.07;7.80;;;26.70;89.40;;;;;;5073801;28;20107;-73
2022/10/15 10:41:04;;;;;;;9.60;7.35;;;26.00;89.20;;;;;;5073467;28;20041;-74
2022/10/15 10:43:30;;;;;;;9.45;6.50;;;25.40;90.30;;;;;;5072972;28;20056;-74
2022/10/15 10:46:21;;;;;;;8.00;6.85;;;25.40;90.60;;;;;;5071816;28;20107;-73
2022/10/15 10:48:49;;;;;;;6.82;5.80;;;24.80;90.20;;;;;;5066966;28;20051;-73
2022/10/15 10:51:18;;;;;;;9.27;5.65;;;25.40;91.00;;;;;;5072958;28;20021;-74
2022/10/15 10:54:13;;;;;;;7.53;6.00;;;25.80;90.10;;;;;;5072857;28;20490;-73
2022/10/15 10:56:42;;;;;;;7.10;5.72;;;26.80;89.20;;;;;;5071361;28;20119;-75
2022/10/15 10:59:33;;;;;;;8.73;5.47;;;27.80;84.40;;;;;;5070074;28;20037;-76
2022/10/15 11:01:59;;;;;;;6.85;5.18;;;28.60;82.60;;;;;;5073274;28;20100;-80
2022/10/15 11:04:26;;;;;;;6.90;5.53;;;28.60;78.10;;;;;;5073558;28;20104;-78
2022/10/15 11:07:12;;;;;;;7.00;5.22;;;28.30;74.60;;;;;;5073770;28;20032;-79
2022/10/15 11:09:50;;;;;;;8.07;5.65;;;28.60;77.30;;;;;;5073253;28;20051;-74
2022/10/15 11:12:25;;;;;;;;;;;28.60;75.70;;;;;;5073691;28;20071;-75
2022/10/15 11:15:05;;;;;;;6.40;5.55;;;28.80;75.90;;;;;;5072526;28;19908;-76
2022/10/15 11:18:21;;;;;;;8.75;5.60;;;29.10;76.70;;;;;;5072613;28;20165;-78
2022/10/15 11:20:56;;;;;;;7.10;5.75;;;29.20;72.40;;;;;;5030188;28;20029;-77
2022/10/15 11:23:48;;;;;;;6.95;6.03;;;29.10;72.70;;;;;;5067311;28;20040;-81
2022/10/15 11:26:39;;;;;;;5.82;4.70;;;28.80;71.90;;;;;;5072828;28;20041;-84
2022/10/15 11:29:19;;;;;;;6.88;5.82;;;29.20;73.80;;;;;;5073589;28;20477;-83
2022/10/15 11:32:15;;;;;;;7.63;6.13;;;29.40;74.30;;;;;;5072267;28;20043;-83
2022/10/15 11:35:07;;;;;;;6.90;6.13;;;28.80;72.00;;;;;;5073242;28;20024;-83
2022/10/15 11:37:52;;;;;;;7.97;6.32;;;27.80;72.90;;;;;;5072835;28;20028;-81
2022/10/15 11:40:40;;;;;;;8.20;6.57;;;27.20;75.40;;;;;;5071741;28;20112;-83
2022/10/15 11:43:36;;;;;;;10.00;6.35;;;26.60;76.70;;;;;;5071782;28;20445;-84
2022/10/15 11:46:18;;;;;;;8.30;6.13;;;26.30;76.90;;;;;;5071811;28;20139;-89
2022/10/15 11:49:21;;;;;;;7.22;5.72;;;25.80;77.60;;;;;;5072636;28;20482;-81
2022/10/15 11:52:14;;;;;;;7.57;5.93;;;25.40;79.50;;;;;;5072826;28;20032;-80
2022/10/15 11:55:03;;;;;;;7.50;5.85;;;25.00;80.90;;;;;;5072253;28;20029;-80
2022/10/15 11:57:33;;;;;;;6.88;5.57;;;24.80;81.10;;;;;;5066463;28;20040;-77
2022/10/15 12:00:08;;;;;;;7.43;5.60;;;24.30;81.70;;;;;;5072002;28;20028;-80
2022/10/15 12:02:36;;;;;;;10.45;5.40;;;23.90;82.90;;;;;;5071994;28;20091;-80
2022/10/15 12:05:14;;;;;;;7.13;4.65;;;23.70;83.80;;;;;;5071012;28;20096;-78
2022/10/15 12:07:43;;;;;;;5.45;4.15;;;23.20;84.10;;;;;;5070769;28;20029;-79
2022/10/15 12:10:12;;;;;;;5.60;4.70;;;22.90;85.50;;;;;;5070750;28;20029;-77
2022/10/15 12:13:02;;;;;;;4.97;4.13;;;22.50;86.30;;;;;;5070154;28;20477;-76
2022/10/15 12:15:48;;;;;;;5.30;3.83;;;22.40;87.10;;;;;;5071501;28;20052;-76
2022/10/15 12:18:26;;;;;;;5.63;3.50;;;22.10;88.40;;;;;;5071433;28;20508;-77
2022/10/15 12:20:54;;;;;;;4.72;3.63;;;21.90;88.60;;;;;;5071719;28;20444;-77
2022/10/15 12:23:37;;;;;;;6.57;3.47;;;21.80;89.80;;;;;;5072616;28;20048;-74
2022/10/15 12:26:22;;;;;;;5.40;3.47;;;21.70;90.30;;;;;;5071893;28;20079;-75
2022/10/15 12:28:51;;;;;;;3.97;3.47;;;21.60;90.60;;;;;;5071809;28;20036;-74
2022/10/15 12:31:20;;;;;;;5.82;3.47;;;21.70;90.50;;;;;;5071281;28;20044;-76
2022/10/15 12:33:52;;;;;;;7.35;3.65;;;21.70;90.20;;;;;;5072770;28;20097;-76
2022/10/15 12:36:29;;;;;;;4.20;3.38;;;21.70;90.50;;;;;;5076291;28;20029;-77
2022/10/15 12:38:58;;;;;;;6.97;3.35;;;21.70;90.50;;;;;;5073819;28;20123;-74
2022/10/15 12:41:41;;;;;;;4.72;3.60;;;21.60;90.40;;;;;;5073843;28;20331;-74
2022/10/15 12:44:16;;;;;;;5.90;3.17;;;21.40;90.30;;;;;;5071290;28;20033;-75
2022/10/15 12:46:42;;;;;;;4.80;3.33;;;21.40;91.00;;;;;;5071649;28;20039;-75
2022/10/15 12:49:25;;;;;;;5.85;3.45;;;21.40;90.60;;;;;;5071304;28;20028;-73